メインページ
METAR-TAF:

METAR-TAF

空港 :

Arviat, ヌナブト準州, カナダ

緯度: 61-06N, 経度: 094-04W, 海抜: 10m

現時点の気象観測

当レポートは43分前の12:00(UTC)に作成
北西の風 21kt
気温 -22°C
湿度 84%
気圧 1023 hPa
視程: 24.1km
高度29000ftの雲はほとんどない
氷晶, 低い地吹雪

METAR: CYEK 251200Z 32021KT 15SM IC DRSN FEW290 M22/M24 A3022 RMK CI1 TR AFT 09UTC 20.0/SNW CVR/MUCH LOOSE SLP237

時間: 07:43 (12:43 UTC)

予報

当レポートは1時間5分前の11:38(UTC)に作成
予報は25日の 12時(UTC)から 25日の 24時(UTC)まで有効
北西の風 18kt、最大28ktの突風を伴う
視程: 10km
晴天
25日の 12時(UTC)から 25日の 15時(UTC)まで一時的に
視程: 3.2km
氷晶, 高い地吹雪, 靄
25日の 1500時(UTC)から
北西の風 15kt
視程: 10km
晴天
25日の 15時(UTC)から 25日の 18時(UTC)まで一時的に
視程: 8.0km
氷晶, 高い地吹雪
25日の 16時(UTC)から 25日の 18時(UTC)まで徐々に
西/北西の風 12kt
25日の 2200時(UTC)から
西の風 8kt
視程: 10km
高度10000ftの千切れ雲あり
氷晶
25日の 22時(UTC)から 25日の 24時(UTC)まで徐々に
の風 7kt

TAF: CYEK 251138Z 2512/2524 32018G28KT P6SM SKC TEMPO 2512/2515 2SM IC BLSN BR FM251500 32015KT P6SM SKC TEMPO 2515/2518 5SM IC BLSN BECMG 2516/2518 30012KT FM252200 28008KT P6SM IC BKN100 BECMG 2522/2524 18007KT RMK FCST BASED ON AUTO OBS. NXT FCST BY 251800Z

4,000以上の空港の気象観測と天気予報(METAR報とTAF報)

利用可能な観測所は地図上に黄色い丸と赤い丸で示す。

丸の上にカーソルを重ねると観測所名を参照できる。

次にクリックすると気象観測と天気予報を参照できる。

マップの切り替え:黒色「×」印の緑ボタンをクリックして拡大、「-」印の緑ボタンをクリックして縮小、緑色の三角印をクリックして隣りの地図に切り替え


METAR-TAF: